AirNav   Everest Fuels
 
 1025 users online  

XA31 Lewis Ranch Airport
Leakey, Texas, USA

GOING TO LEAKEY?


FAA INFORMATION EFFECTIVE 02 DECEMBER 2021

Location

FAA Identifier: XA31
Lat/Long: 29-49-00.7920N 099-47-16.2210W
29-49.013200N 099-47.270350W
29.8168867,-99.7878392
(estimated)
Elevation: 1730 ft. / 527 m (estimated)
Variation: 08E (1985)
From city: 5 miles N of LEAKEY, TX
Time zone: UTC -6 (UTC -5 during Daylight Saving Time)
Zip code: 78873

Airport Operations

Airport use: Private use. Permission required prior to landing
Activation date: 05/1949
Control tower: no
ARTCC: HOUSTON CENTER
FSS: SAN ANGELO FLIGHT SERVICE STATION
Attendance: UNATNDD
Wind indicator: yes
Segmented circle: yes
SEGMENTED CIRCLE - ROCKS PAINTED WHITE.

Nearby radio navigation aids

VOR radial/distance  VOR name  Freq  Var
RSGr104/29.2ROCKSPRINGS VORTAC114.5510E
CSIr250/30.5CENTER POINT VORTAC117.5008E

Airport Services

Parking: tiedowns
Airframe service: NONE
Powerplant service: NONE

Runway Information

Runway 11/29

Dimensions: 3150 x 200 ft. / 960 x 61 m
RY 11/29 ONLY CENTER 70 FT REGULARLY MAINTAINED.
Surface: turf, in fair condition
RY 11/29 NW 300 FT OF RY ROUGH.
Runway edge markings: 11/29 EDGES DEFINED WITH WHITE HALF BARRELS.
RUNWAY 11  RUNWAY 29
Traffic pattern: leftleft
Obstructions: 12 ft. berm, 80 ft. from runway, 6:1 slope to clear15 ft. road, 120 ft. right of centerline

Airport Ownership and Management from official FAA records

Ownership: Privately-owned
Owner: EUNICE D LEWIS
119 LARAMIE DRIVE
SAN ANTONIO, TX 78209
Phone 210-828-0402
Manager: HARDY C. LEWIS
P.O.BOX 1399
LEAKEY, TX 78873
Phone 830-232-5331
USE THIS TELEPHONE NUMBER FOR EMERGENCY SERVICE.

Airport Operational Statistics

Aircraft operations: 25/year *
100% transient general aviation
* for 12-month period ending 14 July 2003

Additional Remarks

ARPT SURROUNDED BY 500' HILLS 1/2 TO 3/4 MILE IN EACH DIRECTION.
FOR CD CTC LAUGHLIN APCH AT 830-298-5192, WHEN APCH CLSD CTC HOUSTON ARTCC AT 281-230-5622.

Instrument Procedures

There are no published instrument procedures at XA31.

Some nearby airports with instrument procedures:

KECU - Edwards County Airport (22 nm W)
KUVA - Garner Field Airport (36 nm S)
KERV - Kerrville Municipal Airport/Louis Schreiner Field (38 nm E)
KJCT - Kimble County Airport (42 nm N)
KHDO - South Texas Regional Airport at Hondo (42 nm SE)
 
Loc | Ops | Rwys | IFR | FBO | Links
Com | Nav | Svcs | Stats | Notes
Area around XA31 (Lewis Ranch Airport)
 
Road maps at: MapQuest Bing Google
 
Aerial photo
No photo
 
Sectional chart

 
Airport distance calculator
Flying to Lewis Ranch Airport? Find the distance to fly.

From to XA31

Sunrise and sunset
Times for 03-Dec-2021
 Local
(UTC-6)
 Zulu
(UTC)
Morning civil twilight06:5412:54
Sunrise07:2013:20
Sunset17:3823:38
Evening civil twilight18:0400:04

Current date and time
Zulu (UTC)  03-Dec-2021 23:39:56
Local (UTC-6)  03-Dec-2021 17:39:56
 
METAR
KECU 
22nm W 
032315Z AUTO 15011KT 10SM 24/14 A3004 RMK AO2
KUVA 
36nm S 
032315Z AUTO 15007KT 10SM CLR 27/15 A2997 RMK AO2 T02730151
KERV 
38nm E 
032315Z AUTO 15009KT 10SM CLR 24/18 A3000 RMK AO2 T02360183
KJCT 
41nm N 
032251Z AUTO 17011KT 10SM CLR 29/12 A2995 RMK AO2 SLP109 T02890122
KHDO 
42nm SE 
032251Z AUTO 12007KT 10SM CLR 27/18 A2997 RMK AO2 SLP134 T02670178
TAF
KJCT 
41nm N 
031736Z 0318/0418 20009KT P6SM SKC FM040100 VRB03KT P6SM SKC
NOTAMs
Click for the latest NOTAMs
NOTAMs are issued by the DoD/FAA and will open in a separate window not controlled by AirNav.

 

 
 

Would you like to see your business listed on this page?

 If your business provides an interesting product or service to pilots, flight crews, aircraft, or users of the Lewis Ranch Airport, you should consider listing it here.  To start the listing process, click on the button below
 
Add a business
 

Other Pages about Lewis Ranch Airport

Update a link
 
Copyright © AirNav, LLC. All rights reserved. Privacy Policy  Contact